Time;durP1;ratioP1;P1;durP2;ratioP2;P2;SDS_P1;SDS_P2;PMS_P1;PMS_P2;Temp;Humidity;BMP_temperature;BMP_pressure;BME280_temperature;BME280_humidity;BME280_pressure;Samples;Min_cycle;Max_cycle;Signal;HPM_P1;HPM_P2
2021/04/14 00:00:46;;;;;;;11.50;8.80;;;6.10;99.90;;;;;;5112811;28;20170;-78
2021/04/14 00:03:24;;;;;;;11.63;7.87;;;6.10;99.90;;;;;;5113814;28;20173;-77
2021/04/14 00:05:51;;;;;;;12.20;8.03;;;6.00;99.90;;;;;;5113923;28;20201;-77
2021/04/14 00:08:17;;;;;;;10.23;7.83;;;6.00;99.90;;;;;;5113899;28;20195;-77
2021/04/14 00:10:44;;;;;;;8.60;7.80;;;6.00;99.90;;;;;;5113665;28;20565;-77
2021/04/14 00:13:14;;;;;;;11.87;8.33;;;6.00;99.90;;;;;;5113268;28;20268;-77
2021/04/14 00:15:43;;;;;;;9.90;7.63;;;6.00;99.90;;;;;;5113299;28;20260;-77
2021/04/14 00:18:10;;;;;;;8.03;7.37;;;6.00;99.90;;;;;;5113787;28;20514;-77
2021/04/14 00:20:36;;;;;;;9.13;7.83;;;5.90;99.90;;;;;;5112471;28;20229;-77
2021/04/14 00:23:03;;;;;;;8.33;7.53;;;5.80;99.90;;;;;;5112278;28;20165;-77
2021/04/14 00:25:32;;;;;;;8.13;7.30;;;5.80;99.90;;;;;;5113565;28;20172;-78
2021/04/14 00:27:58;;;;;;;8.27;7.23;;;5.70;99.90;;;;;;5113707;28;20172;-77
2021/04/14 00:30:24;;;;;;;8.60;7.67;;;5.50;99.90;;;;;;5112320;28;20252;-77
2021/04/14 00:32:50;;;;;;;8.57;7.53;;;5.40;99.90;;;;;;5111991;28;20189;-77
2021/04/14 00:35:19;;;;;;;9.70;7.70;;;5.40;99.90;;;;;;5113633;28;20617;-77
2021/04/14 00:37:45;;;;;;;11.23;7.60;;;5.40;99.90;;;;;;5111859;28;20165;-77
2021/04/14 00:40:17;;;;;;;10.53;7.80;;;5.40;99.90;;;;;;5113576;28;20188;-77
2021/04/14 00:42:43;;;;;;;17.17;8.90;;;5.40;99.90;;;;;;5113165;28;20634;-77
2021/04/14 00:45:09;;;;;;;11.33;8.27;;;5.40;99.90;;;;;;5112990;28;20277;-77
2021/04/14 00:47:34;;;;;;;13.53;8.20;;;5.30;99.90;;;;;;5113278;28;20256;-77
2021/04/14 00:50:00;;;;;;;15.90;9.40;;;5.30;99.90;;;;;;5112187;28;20292;-77
2021/04/14 00:52:26;;;;;;;19.17;10.03;;;5.30;99.90;;;;;;5113047;28;20179;-77
2021/04/14 00:54:52;;;;;;;15.53;10.20;;;5.20;99.90;;;;;;5113470;28;20174;-77
2021/04/14 00:57:17;;;;;;;13.70;9.73;;;5.20;99.90;;;;;;5095255;28;20174;-77
2021/04/14 00:59:43;;;;;;;45.50;20.23;;;5.20;99.90;;;;;;5114037;28;20276;-77
2021/04/14 01:02:09;;;;;;;54.37;26.07;;;5.20;99.90;;;;;;5116709;28;20184;-77
2021/04/14 01:04:35;;;;;;;57.97;27.37;;;5.10;99.90;;;;;;5116947;28;20187;-77
2021/04/14 01:07:01;;;;;;;18.67;11.67;;;4.90;99.90;;;;;;5115676;28;20169;-77
2021/04/14 01:09:27;;;;;;;24.60;13.50;;;4.90;99.90;;;;;;5116959;28;20246;-77
2021/04/14 01:11:54;;;;;;;25.17;13.40;;;4.90;99.90;;;;;;5115511;28;20173;-77
2021/04/14 01:14:20;;;;;;;21.47;14.10;;;4.80;99.90;;;;;;5116855;28;20170;-78
2021/04/14 01:16:45;;;;;;;28.60;16.70;;;4.60;99.90;;;;;;5116710;28;20172;-77
2021/04/14 01:19:12;;;;;;;33.60;17.30;;;4.60;99.90;;;;;;5117146;28;20173;-77
2021/04/14 01:21:39;;;;;;;44.20;17.80;;;4.60;99.90;;;;;;5116398;28;20207;-77
2021/04/14 01:24:07;;;;;;;39.17;16.47;;;4.60;99.90;;;;;;5116470;28;20180;-77
2021/04/14 01:26:33;;;;;;;32.47;16.50;;;4.70;99.90;;;;;;5116088;28;20174;-78
2021/04/14 01:28:59;;;;;;;29.40;16.77;;;4.70;99.90;;;;;;5115088;28;20170;-77
2021/04/14 01:31:34;;;;;;;23.83;12.93;;;4.70;99.90;;;;;;5098390;28;20262;-77
2021/04/14 01:34:14;;;;;;;16.43;10.10;;;4.60;99.90;;;;;;5116715;28;20626;-77
2021/04/14 01:36:40;;;;;;;15.60;9.47;;;4.50;99.90;;;;;;5116418;28;20218;-77
2021/04/14 01:39:07;;;;;;;14.23;8.53;;;4.40;99.90;;;;;;5114674;28;20185;-77
2021/04/14 01:41:33;;;;;;;11.87;8.77;;;4.40;99.90;;;;;;5115142;28;20260;-78
2021/04/14 01:43:59;;;;;;;16.43;9.00;;;4.40;99.90;;;;;;5116276;27;20178;-77
2021/04/14 01:46:25;;;;;;;21.07;12.37;;;4.30;99.90;;;;;;5115018;28;20577;-77
2021/04/14 01:48:51;;;;;;;16.90;10.50;;;4.30;99.90;;;;;;5115905;28;20177;-77
2021/04/14 01:51:17;;;;;;;22.87;9.87;;;4.30;99.90;;;;;;5114865;28;20684;-77
2021/04/14 01:53:42;;;;;;;9.43;8.47;;;4.40;99.90;;;;;;5116119;28;20674;-77
2021/04/14 01:56:09;;;;;;;15.10;10.20;;;4.30;99.90;;;;;;5115044;28;20550;-78
2021/04/14 01:58:35;;;;;;;18.90;9.77;;;4.30;99.90;;;;;;5115620;28;20208;-77
2021/04/14 02:01:05;;;;;;;12.77;9.20;;;4.30;99.90;;;;;;5114809;28;20201;-77
2021/04/14 02:03:32;;;;;;;11.57;9.20;;;4.30;99.90;;;;;;5114265;28;20522;-77
2021/04/14 02:05:58;;;;;;;12.47;9.07;;;4.30;99.90;;;;;;5114623;28;20169;-77
2021/04/14 02:08:24;;;;;;;9.37;8.47;;;4.30;99.90;;;;;;5114451;28;20229;-77
2021/04/14 02:10:52;;;;;;;8.77;7.63;;;4.40;99.90;;;;;;5115225;28;20204;-77
2021/04/14 02:13:23;;;;;;;12.73;9.00;;;4.40;99.90;;;;;;5115089;28;20211;-77
2021/04/14 02:15:50;;;;;;;15.67;9.77;;;4.40;99.90;;;;;;5115859;28;20154;-77
2021/04/14 02:18:16;;;;;;;13.20;11.07;;;4.50;99.90;;;;;;5115581;28;20165;-77
2021/04/14 02:20:42;;;;;;;14.93;10.90;;;4.60;99.90;;;;;;5115798;28;20676;-77
2021/04/14 02:23:31;;;;;;;14.97;10.63;;;4.60;99.90;;;;;;5115895;28;20190;-78
2021/04/14 02:25:58;;;;;;;17.50;11.50;;;4.70;99.90;;;;;;5114381;28;20621;-78
2021/04/14 02:28:24;;;;;;;10.90;9.90;;;4.70;99.90;;;;;;5115483;28;20178;-77
2021/04/14 02:30:50;;;;;;;21.07;10.60;;;4.70;99.90;;;;;;5113643;28;20205;-77
2021/04/14 02:33:17;;;;;;;13.17;10.17;;;4.70;99.90;;;;;;5113609;28;20630;-77
2021/04/14 02:35:43;;;;;;;16.30;10.67;;;4.70;99.90;;;;;;5114034;28;20733;-77
2021/04/14 02:38:10;;;;;;;14.50;10.30;;;4.70;99.90;;;;;;5113423;28;20176;-77
2021/04/14 02:40:36;;;;;;;13.53;8.37;;;4.60;99.90;;;;;;5113407;28;20182;-77
2021/04/14 02:43:03;;;;;;;12.37;9.07;;;4.50;99.90;;;;;;5115165;28;20174;-77
2021/04/14 02:45:32;;;;;;;15.97;10.90;;;4.50;99.90;;;;;;5114983;28;20165;-77
2021/04/14 02:47:59;;;;;;;16.87;12.13;;;4.60;99.90;;;;;;5113641;28;20174;-77
2021/04/14 02:50:25;;;;;;;22.67;12.90;;;4.60;99.90;;;;;;5113402;28;20764;-77
2021/04/14 02:52:53;;;;;;;47.90;21.47;;;4.80;99.90;;;;;;5115011;28;20169;-77
2021/04/14 02:55:20;;;;;;;29.33;16.60;;;4.80;99.90;;;;;;5114948;28;20169;-77
2021/04/14 02:57:46;;;;;;;26.90;14.57;;;4.90;99.90;;;;;;5114924;28;20169;-78
2021/04/14 03:00:14;;;;;;;21.77;14.33;;;4.80;99.90;;;;;;5092708;28;20194;-77
2021/04/14 03:02:39;;;;;;;21.97;14.73;;;4.80;99.90;;;;;;5113092;28;20731;-77
2021/04/14 03:05:07;;;;;;;27.57;13.87;;;4.70;99.90;;;;;;5096649;28;20177;-77
2021/04/14 03:07:33;;;;;;;26.37;16.23;;;4.70;99.90;;;;;;5114425;28;20173;-78
2021/04/14 03:09:59;;;;;;;40.57;19.03;;;4.70;99.90;;;;;;5114126;28;20209;-77
2021/04/14 03:12:24;;;;;;;33.50;17.67;;;4.70;99.90;;;;;;5114072;28;20170;-77
2021/04/14 03:14:50;;;;;;;29.10;15.57;;;4.60;99.90;;;;;;5113060;28;20617;-77
2021/04/14 03:17:16;;;;;;;33.07;16.60;;;4.50;99.90;;;;;;5114309;28;20555;-77
2021/04/14 03:19:41;;;;;;;23.80;14.70;;;4.60;99.90;;;;;;5113275;28;20226;-78
2021/04/14 03:22:07;;;;;;;26.40;14.37;;;4.70;99.90;;;;;;5113313;28;20169;-77
2021/04/14 03:24:33;;;;;;;25.23;14.90;;;4.80;99.90;;;;;;5112285;28;20169;-78
2021/04/14 03:26:58;;;;;;;24.47;15.00;;;4.90;99.90;;;;;;5113165;28;20169;-77
2021/04/14 03:29:24;;;;;;;29.70;16.77;;;4.90;99.90;;;;;;5112949;28;20219;-77
2021/04/14 03:31:50;;;;;;;33.73;18.30;;;5.00;99.90;;;;;;5112792;28;20192;-78
2021/04/14 03:34:15;;;;;;;38.77;18.10;;;5.00;99.90;;;;;;5114348;28;20193;-77
2021/04/14 03:36:41;;;;;;;32.23;18.97;;;5.10;99.90;;;;;;5096133;28;20165;-77
2021/04/14 03:39:07;;;;;;;35.20;17.70;;;5.20;99.90;;;;;;5112545;28;20173;-77
2021/04/14 03:41:33;;;;;;;26.30;16.30;;;5.20;99.90;;;;;;5114085;28;20173;-77
2021/04/14 03:43:59;;;;;;;29.93;17.63;;;5.20;99.90;;;;;;5114522;28;20176;-78
2021/04/14 03:46:25;;;;;;;26.67;15.87;;;5.20;99.90;;;;;;5112759;28;20331;-77
2021/04/14 03:48:52;;;;;;;25.00;15.53;;;5.20;99.90;;;;;;5113892;28;20245;-77
2021/04/14 03:51:18;;;;;;;25.80;14.87;;;5.20;99.90;;;;;;5112674;28;20201;-77
2021/04/14 03:53:44;;;;;;;28.57;15.93;;;5.10;99.90;;;;;;5112668;28;20161;-77
2021/04/14 03:56:13;;;;;;;27.07;15.37;;;5.00;99.90;;;;;;5112380;28;20180;-77
2021/04/14 03:58:42;;;;;;;28.10;13.77;;;5.00;99.90;;;;;;5112410;28;20175;-78
2021/04/14 04:01:12;;;;;;;26.57;15.30;;;5.00;99.90;;;;;;5113719;28;20173;-77
2021/04/14 04:03:39;;;;;;;29.03;15.33;;;4.90;99.90;;;;;;5112346;28;20208;-77
2021/04/14 04:06:05;;;;;;;22.87;13.60;;;4.80;99.90;;;;;;5113911;28;20169;-77
2021/04/14 04:08:31;;;;;;;17.10;12.13;;;4.80;99.90;;;;;;5112228;28;20597;-77
2021/04/14 04:10:56;;;;;;;16.50;11.97;;;4.80;99.90;;;;;;5111724;28;20236;-77
2021/04/14 04:13:23;;;;;;;17.30;11.63;;;4.80;99.90;;;;;;5112547;28;20252;-77
2021/04/14 04:15:48;;;;;;;28.70;13.17;;;4.80;99.90;;;;;;5113798;28;20174;-78
2021/04/14 04:18:14;;;;;;;20.57;12.10;;;4.80;99.90;;;;;;5112306;28;20169;-77
2021/04/14 04:20:40;;;;;;;22.80;10.70;;;4.80;99.90;;;;;;5075192;28;20186;-77
2021/04/14 04:23:07;;;;;;;11.77;10.57;;;4.70;99.90;;;;;;5093323;28;20170;-77
2021/04/14 04:25:33;;;;;;;11.80;10.40;;;4.70;99.90;;;;;;5105538;28;20640;-77
2021/04/14 04:28:00;;;;;;;12.83;10.17;;;4.80;99.90;;;;;;5113507;28;20172;-77
2021/04/14 04:30:27;;;;;;;15.03;10.10;;;4.80;99.90;;;;;;5112260;28;20288;-78
2021/04/14 04:32:53;;;;;;;10.07;9.03;;;4.70;99.90;;;;;;5112165;28;20201;-77
2021/04/14 04:35:19;;;;;;;17.13;10.33;;;4.70;99.90;;;;;;5114717;28;20533;-77
2021/04/14 04:37:45;;;;;;;11.00;9.77;;;4.80;99.90;;;;;;5117796;28;20178;-77
2021/04/14 04:40:12;;;;;;;15.67;9.63;;;4.80;99.90;;;;;;5115805;28;20177;-77
2021/04/14 04:42:37;;;;;;;10.10;9.10;;;4.70;99.90;;;;;;5116123;28;20165;-78
2021/04/14 04:45:08;;;;;;;11.60;8.97;;;4.80;99.90;;;;;;5116270;28;20541;-77
2021/04/14 04:47:34;;;;;;;13.20;9.67;;;4.90;99.90;;;;;;5116001;28;20621;-78
2021/04/14 04:49:59;;;;;;;14.23;8.87;;;5.00;99.90;;;;;;5115667;28;20239;-77
2021/04/14 04:52:25;;;;;;;10.67;9.43;;;5.10;99.90;;;;;;5116000;28;20201;-78
2021/04/14 04:54:51;;;;;;;10.13;8.60;;;5.00;99.90;;;;;;5117123;28;20188;-78
2021/04/14 04:57:17;;;;;;;10.53;9.43;;;5.10;99.90;;;;;;5116053;28;20676;-78
2021/04/14 04:59:42;;;;;;;13.90;9.87;;;5.00;99.90;;;;;;5116899;28;20176;-77
2021/04/14 05:02:08;;;;;;;10.63;9.47;;;4.90;99.90;;;;;;5117290;28;20256;-77
2021/04/14 05:04:34;;;;;;;14.03;9.27;;;4.90;99.90;;;;;;5115670;28;20597;-77
2021/04/14 05:06:59;;;;;;;10.43;9.07;;;4.90;99.90;;;;;;5116874;28;20172;-77
2021/04/14 05:09:25;;;;;;;22.10;10.17;;;5.00;99.90;;;;;;5115617;27;20223;-77
2021/04/14 05:11:51;;;;;;;11.37;8.57;;;5.00;99.90;;;;;;5115685;28;20180;-78
2021/04/14 05:14:16;;;;;;;10.77;9.73;;;5.00;99.90;;;;;;5115751;28;20166;-78
2021/04/14 05:16:42;;;;;;;12.47;9.57;;;4.90;99.90;;;;;;5098301;28;20672;-78
2021/04/14 05:19:08;;;;;;;13.27;9.77;;;4.80;99.90;;;;;;5115160;28;20166;-77
2021/04/14 05:21:37;;;;;;;13.97;9.33;;;4.80;99.90;;;;;;5115710;28;20731;-77
2021/04/14 05:24:03;;;;;;;17.73;9.67;;;4.80;99.90;;;;;;5115539;28;20177;-77
2021/04/14 05:26:29;;;;;;;11.10;9.67;;;4.70;99.90;;;;;;5115507;28;20166;-77
2021/04/14 05:28:55;;;;;;;14.13;10.60;;;4.70;99.90;;;;;;5115585;28;20166;-77
2021/04/14 05:31:21;;;;;;;14.13;9.97;;;4.80;99.90;;;;;;5116338;28;20288;-76
2021/04/14 05:33:48;;;;;;;12.27;10.60;;;4.90;99.90;;;;;;5116621;28;20258;-76
2021/04/14 05:36:13;;;;;;;16.00;10.70;;;4.90;99.90;;;;;;5115267;28;20173;-77
2021/04/14 05:38:39;;;;;;;15.60;10.87;;;4.80;99.90;;;;;;5114896;28;20644;-78
2021/04/14 05:41:05;;;;;;;33.80;13.40;;;4.80;99.90;;;;;;5115794;28;20181;-77
2021/04/14 05:43:38;;;;;;;23.33;12.77;;;5.00;99.90;;;;;;5115004;28;20186;-77
2021/04/14 05:46:10;;;;;;;18.70;11.30;;;5.20;99.90;;;;;;5115685;28;20180;-77
2021/04/14 05:48:37;;;;;;;15.80;11.60;;;5.40;99.90;;;;;;5114705;28;20531;-77
2021/04/14 05:51:05;;;;;;;20.30;11.30;;;5.50;99.90;;;;;;5115587;28;20251;-79
2021/04/14 05:53:32;;;;;;;15.97;11.13;;;5.60;99.90;;;;;;5116205;28;20642;-78
2021/04/14 05:55:58;;;;;;;15.83;11.37;;;5.70;99.90;;;;;;5114914;28;20533;-77
2021/04/14 05:58:24;;;;;;;13.07;10.67;;;5.70;99.90;;;;;;5116096;28;20161;-78
2021/04/14 06:00:49;;;;;;;15.53;10.50;;;5.80;99.90;;;;;;5115632;28;20181;-77
2021/04/14 06:03:15;;;;;;;16.37;12.30;;;5.90;99.90;;;;;;5114730;28;20629;-78
2021/04/14 06:05:41;;;;;;;24.80;19.03;;;6.00;99.90;;;;;;5114794;28;20165;-78
2021/04/14 06:08:06;;;;;;;14.73;11.00;;;6.20;99.90;;;;;;5114303;28;20177;-78
2021/04/14 06:10:32;;;;;;;15.83;11.20;;;6.30;99.90;;;;;;5115571;28;20250;-77
2021/04/14 06:12:58;;;;;;;18.17;12.50;;;6.30;99.90;;;;;;5115571;28;20177;-77
2021/04/14 06:15:27;;;;;;;23.53;13.00;;;6.40;99.90;;;;;;5114357;28;20252;-78
2021/04/14 06:17:53;;;;;;;27.77;12.90;;;6.50;99.90;;;;;;5115470;28;20269;-77
2021/04/14 06:20:21;;;;;;;17.87;11.90;;;6.70;99.90;;;;;;5114227;28;20217;-78
2021/04/14 06:22:47;;;;;;;13.77;10.63;;;6.80;99.90;;;;;;5115544;28;20171;-77
2021/04/14 06:25:16;;;;;;;12.73;8.63;;;7.10;99.90;;;;;;5115491;28;20169;-77
2021/04/14 06:28:04;;;;;;;11.63;9.10;;;7.30;99.90;;;;;;5097510;28;20622;-78
2021/04/14 06:30:30;;;;;;;14.10;9.40;;;7.60;99.90;;;;;;5113825;28;20200;-78
2021/04/14 06:32:56;;;;;;;11.93;10.07;;;7.80;99.90;;;;;;5115323;28;20535;-78
2021/04/14 06:35:24;;;;;;;10.57;9.47;;;7.80;99.90;;;;;;5114136;28;20184;-78
2021/04/14 06:37:50;;;;;;;10.63;9.53;;;7.80;99.90;;;;;;5115145;28;20629;-77
2021/04/14 06:43:41;;;;;;;13.73;9.30;;;8.20;99.90;;;;;;5115061;28;20294;-77
2021/04/14 06:46:20;;;;;;;11.50;9.50;;;8.50;99.90;;;;;;5115132;28;20162;-77
2021/04/14 06:49:06;;;;;;;14.52;9.93;;;8.80;99.90;;;;;;5115039;28;20149;-78
2021/04/14 06:51:41;;;;;;;12.02;8.57;;;8.90;99.90;;;;;;5114722;28;20193;-78
2021/04/14 06:54:17;;;;;;;10.07;8.95;;;9.10;99.90;;;;;;5115257;28;20149;-78
2021/04/14 06:56:44;;;;;;;9.35;8.45;;;9.40;99.90;;;;;;5113834;28;20188;-78
2021/04/14 06:59:18;;;;;;;10.48;8.95;;;9.60;99.90;;;;;;5113637;28;20170;-78
2021/04/14 07:02:08;;;;;;;17.23;8.18;;;9.90;99.90;;;;;;5114288;28;20173;-78
2021/04/14 07:04:44;;;;;;;9.07;7.22;;;10.20;99.90;;;;;;5114521;28;20213;-77
2021/04/14 07:07:22;;;;;;;13.40;7.60;;;10.60;99.90;;;;;;5113082;28;20184;-78
2021/04/14 07:09:51;;;;;;;8.13;7.28;;;11.10;99.90;;;;;;5114268;28;20227;-78
2021/04/14 07:12:19;;;;;;;6.57;6.03;;;13.60;99.90;;;;;;5113110;28;20172;-78
2021/04/14 07:14:46;;;;;;;8.88;6.25;;;15.20;99.90;;;;;;5113315;28;20617;-78
2021/04/14 07:17:15;;;;;;;11.93;7.43;;;15.40;99.90;;;;;;5113135;28;20203;-78
2021/04/14 07:20:15;;;;;;;7.00;6.30;;;15.30;99.90;;;;;;5114196;28;20625;-78
2021/04/14 07:23:00;;;;;;;8.57;6.78;;;15.10;99.90;;;;;;5101126;28;20177;-78
2021/04/14 07:25:37;;;;;;;8.65;7.57;;;14.80;99.90;;;;;;5114318;28;20245;-78
2021/04/14 07:28:40;;;;;;;9.85;8.02;;;14.10;99.90;;;;;;5114719;28;20609;-77
2021/04/14 07:31:21;;;;;;;17.50;8.93;;;13.60;99.90;;;;;;5113989;28;20240;-78
2021/04/14 07:34:22;;;;;;;8.15;7.35;;;13.50;99.90;;;;;;5112425;28;20217;-78
2021/04/14 07:37:21;;;;;;;13.35;6.88;;;13.30;99.90;;;;;;5113090;28;20177;-77
2021/04/14 07:40:03;;;;;;;8.77;7.40;;;13.10;99.90;;;;;;5074603;28;20250;-77
2021/04/14 07:43:02;;;;;;;8.52;7.15;;;13.00;99.90;;;;;;5112716;28;20161;-78
2021/04/14 07:45:35;;;;;;;7.88;6.68;;;12.90;99.90;;;;;;5111386;28;20264;-78
2021/04/14 07:48:10;;;;;;;8.57;7.80;;;12.70;99.90;;;;;;5112636;28;20212;-78
2021/04/14 07:50:40;;;;;;;14.25;8.05;;;12.40;99.90;;;;;;5112596;28;20505;-77
2021/04/14 07:53:37;;;;;;;13.32;7.78;;;12.30;99.90;;;;;;5112745;28;20165;-78
2021/04/14 07:56:10;;;;;;;9.82;8.55;;;12.10;99.90;;;;;;5101214;28;20185;-77
2021/04/14 07:58:38;;;;;;;15.63;8.35;;;12.40;99.90;;;;;;5112688;28;20260;-78
2021/04/14 08:01:22;;;;;;;14.55;7.13;;;12.50;99.90;;;;;;5113851;28;20168;-78
2021/04/14 08:03:51;;;;;;;9.95;7.28;;;12.90;99.90;;;;;;5113554;28;20177;-78
2021/04/14 08:06:23;;;;;;;10.02;7.10;;;13.40;99.90;;;;;;5111815;28;20203;-77
2021/04/14 08:08:49;;;;;;;10.70;6.75;;;15.20;99.90;;;;;;5114124;28;20157;-78
2021/04/14 08:11:37;;;;;;;9.80;6.70;;;17.60;99.90;;;;;;5116845;28;20275;-78
2021/04/14 08:14:36;;;;;;;9.27;5.65;;;20.10;97.80;;;;;;5116699;28;20544;-77
2021/04/14 08:17:20;;;;;;;11.02;6.22;;;20.90;95.50;;;;;;5103258;28;20173;-78
2021/04/14 08:19:56;;;;;;;13.15;5.30;;;21.90;92.20;;;;;;5112095;28;20197;-77
2021/04/14 08:22:25;;;;;;;9.90;5.75;;;22.10;89.40;;;;;;5111757;28;20210;-77
2021/04/14 08:24:59;;;;;;;7.35;4.90;;;24.00;87.00;;;;;;5117723;28;20169;-77
2021/04/14 08:27:35;;;;;;;5.93;5.13;;;26.20;78.50;;;;;;5117999;27;20165;-77
2021/04/14 08:30:14;;;;;;;6.35;5.00;;;28.00;70.50;;;;;;5116054;28;20203;-77
2021/04/14 08:32:44;;;;;;;7.20;4.72;;;30.20;65.20;;;;;;5115842;28;20192;-78
2021/04/14 08:35:29;;;;;;;9.85;4.90;;;31.70;60.70;;;;;;5116714;28;20577;-77
2021/04/14 08:38:16;;;;;;;7.63;4.65;;;32.80;57.30;;;;;;5116992;28;20181;-78
2021/04/14 08:40:50;;;;;;;4.85;4.10;;;33.30;55.70;;;;;;5116054;28;20166;-75
2021/04/14 08:43:23;;;;;;;4.90;3.72;;;33.40;54.30;;;;;;5116950;28;20165;-75
2021/04/14 08:45:50;;;;;;;5.15;3.65;;;32.80;54.40;;;;;;5117347;28;20166;-75
2021/04/14 08:48:21;;;;;;;3.55;3.25;;;31.50;52.50;;;;;;5116109;28;20169;-78
2021/04/14 08:50:52;;;;;;;5.63;3.80;;;29.40;52.50;;;;;;5117372;28;20190;-78
2021/04/14 08:53:23;;;;;;;5.05;3.67;;;28.00;54.70;;;;;;5116971;28;20170;-78
2021/04/14 08:55:49;;;;;;;6.55;3.97;;;27.90;56.90;;;;;;5115865;28;20267;-78
2021/04/14 08:58:18;;;;;;;5.05;3.85;;;29.20;55.30;;;;;;5116012;28;20257;-78
2021/04/14 09:00:44;;;;;;;6.15;4.40;;;28.90;54.70;;;;;;5116945;28;20180;-77
2021/04/14 09:03:13;;;;;;;7.32;4.30;;;27.90;56.10;;;;;;5115513;28;20173;-77
2021/04/14 09:05:42;;;;;;;6.97;4.05;;;27.30;58.00;;;;;;5116620;28;20323;-77
2021/04/14 09:08:12;;;;;;;6.82;3.80;;;26.00;57.60;;;;;;5115883;28;20166;-77
2021/04/14 09:11:11;;;;;;;5.38;3.95;;;26.70;57.90;;;;;;5115682;28;20292;-77
2021/04/14 09:13:53;;;;;;;4.70;3.58;;;27.30;58.10;;;;;;5116415;28;20166;-77
2021/04/14 09:16:39;;;;;;;6.30;3.60;;;25.70;58.90;;;;;;5112761;28;20209;-80
2021/04/14 09:19:27;;;;;;;10.13;4.00;;;25.00;58.70;;;;;;5116498;28;20180;-79
2021/04/14 09:22:12;;;;;;;4.93;2.90;;;25.00;58.80;;;;;;5113771;28;20621;-77
2021/04/14 09:24:49;;;;;;;3.67;2.90;;;24.80;58.30;;;;;;5111369;28;20195;-77
2021/04/14 09:27:37;;;;;;;9.52;4.75;;;23.40;59.40;;;;;;5116439;28;20640;-80
2021/04/14 09:30:30;;;;;;;7.32;3.75;;;22.00;62.00;;;;;;5116506;28;20549;-78
2021/04/14 09:33:16;;;;;;;3.88;3.35;;;23.70;59.70;;;;;;5114485;28;20192;-80
2021/04/14 09:35:51;;;;;;;8.60;3.60;;;26.70;58.50;;;;;;5115987;28;20169;-80
2021/04/14 09:38:23;;;;;;;5.15;3.65;;;28.40;55.80;;;;;;5115029;28;20173;-79
2021/04/14 09:40:51;;;;;;;9.52;3.92;;;29.70;53.80;;;;;;5115925;28;20158;-79
2021/04/14 09:43:26;;;;;;;6.05;3.83;;;30.40;53.20;;;;;;5115526;28;20210;-76
2021/04/14 09:45:56;;;;;;;7.15;4.57;;;30.50;52.50;;;;;;5115420;28;20168;-76
2021/04/14 09:48:22;;;;;;;6.60;4.82;;;31.90;51.20;;;;;;5114628;28;20314;-77
2021/04/14 09:50:49;;;;;;;4.65;4.25;;;32.50;49.00;;;;;;5114556;28;20721;-78
2021/04/14 09:53:15;;;;;;;14.40;4.50;;;33.00;50.30;;;;;;5072821;28;20301;-81
2021/04/14 09:55:42;;;;;;;7.97;4.70;;;31.60;50.10;;;;;;5055334;28;20270;-80
2021/04/14 09:58:19;;;;;;;8.45;4.68;;;32.30;49.20;;;;;;5072527;28;20265;-78
2021/04/14 10:00:50;;;;;;;5.82;4.63;;;32.30;49.40;;;;;;5072518;28;20158;-78
2021/04/14 10:03:29;;;;;;;10.90;4.80;;;32.30;51.20;;;;;;5072718;28;20185;-77
2021/04/14 10:06:03;;;;;;;6.30;4.70;;;32.50;49.70;;;;;;5072531;28;20300;-77
2021/04/14 10:08:29;;;;;;;6.63;5.55;;;32.20;49.40;;;;;;5072573;28;20186;-76
2021/04/14 10:10:54;;;;;;;10.15;6.18;;;31.60;50.40;;;;;;5072273;28;20483;-76
2021/04/14 10:13:20;;;;;;;5.40;4.82;;;31.40;48.50;;;;;;5072675;28;20183;-78
2021/04/14 10:15:48;;;;;;;6.25;3.97;;;31.90;49.00;;;;;;5054964;28;20181;-78
2021/04/14 10:18:21;;;;;;;3.92;3.50;;;33.10;47.80;;;;;;5072149;28;20749;-81
2021/04/14 10:20:47;;;;;;;4.55;3.80;;;33.60;45.60;;;;;;5072203;28;20186;-77
2021/04/14 10:23:17;;;;;;;5.68;3.83;;;33.70;46.50;;;;;;5075777;28;20268;-76
2021/04/14 10:25:43;;;;;;;6.85;3.90;;;33.40;45.90;;;;;;5115294;28;20556;-76
2021/04/14 10:28:15;;;;;;;4.15;3.83;;;33.30;47.00;;;;;;5114470;28;20254;-77
2021/04/14 10:30:46;;;;;;;4.35;4.05;;;32.60;47.30;;;;;;5103105;28;20192;-76
2021/04/14 10:33:19;;;;;;;5.22;4.13;;;34.00;46.70;;;;;;5114983;28;20178;-76
2021/04/14 10:35:47;;;;;;;5.60;4.13;;;33.80;46.90;;;;;;5109685;28;20701;-75
2021/04/14 10:38:13;;;;;;;8.23;4.07;;;31.80;45.70;;;;;;5145397;27;20218;-76
2021/04/14 10:40:44;;;;;;;7.13;4.30;;;29.70;47.70;;;;;;5105909;28;20567;-75
2021/04/14 10:43:20;;;;;;;7.55;5.18;;;28.80;47.90;;;;;;5113274;28;20166;-75
2021/04/14 10:45:54;;;;;;;5.28;4.88;;;28.20;47.50;;;;;;5114999;27;20163;-76
2021/04/14 10:48:22;;;;;;;5.25;4.60;;;26.90;48.90;;;;;;5113907;28;20165;-75
2021/04/14 10:50:48;;;;;;;5.50;5.00;;;25.70;49.70;;;;;;5113681;28;20250;-75
2021/04/14 10:53:15;;;;;;;4.72;4.38;;;24.60;52.10;;;;;;5114634;28;20170;-76
2021/04/14 10:55:48;;;;;;;5.15;4.75;;;23.40;51.90;;;;;;5115041;28;20185;-75
2021/04/14 10:58:20;;;;;;;5.60;5.10;;;22.20;53.50;;;;;;5115035;28;20149;-76
2021/04/14 11:00:48;;;;;;;6.50;5.45;;;21.60;55.80;;;;;;5114676;28;20169;-75
2021/04/14 11:03:17;;;;;;;5.63;5.05;;;21.20;57.40;;;;;;5114924;28;20178;-75
2021/04/14 11:05:53;;;;;;;10.68;6.45;;;20.50;58.20;;;;;;5115080;28;20300;-75
2021/04/14 11:08:19;;;;;;;6.80;6.07;;;20.00;58.80;;;;;;5114930;28;20165;-75
2021/04/14 11:10:45;;;;;;;9.27;6.93;;;19.50;59.90;;;;;;5105820;28;20618;-77
2021/04/14 11:13:19;;;;;;;8.77;6.80;;;18.90;62.70;;;;;;5112652;28;20533;-77
2021/04/14 11:15:48;;;;;;;7.15;6.45;;;17.70;64.00;;;;;;5114559;28;20195;-77
2021/04/14 11:18:16;;;;;;;12.75;7.40;;;16.60;65.80;;;;;;5113967;28;20190;-77
2021/04/14 11:20:53;;;;;;;8.45;7.45;;;15.90;67.00;;;;;;5095964;28;20226;-76
2021/04/14 11:23:21;;;;;;;10.88;7.65;;;15.50;68.30;;;;;;5114020;28;20256;-76
2021/04/14 11:25:47;;;;;;;9.98;7.60;;;15.40;68.80;;;;;;5113650;28;20200;-76
2021/04/14 11:28:16;;;;;;;8.13;7.43;;;15.40;70.90;;;;;;5113058;28;20215;-75
2021/04/14 11:30:55;;;;;;;13.43;7.07;;;15.20;70.90;;;;;;5114062;28;20203;-77
2021/04/14 11:33:36;;;;;;;15.35;7.85;;;15.10;70.90;;;;;;5113200;28;20332;-76
2021/04/14 11:36:03;;;;;;;9.27;7.75;;;15.00;71.60;;;;;;5112469;28;20214;-76
2021/04/14 11:38:41;;;;;;;12.98;7.75;;;15.10;72.40;;;;;;5113620;28;20176;-76
2021/04/14 11:41:29;;;;;;;9.02;7.68;;;14.90;71.10;;;;;;5125895;27;20636;-76
2021/04/14 11:43:55;;;;;;;8.65;7.72;;;15.10;71.20;;;;;;5092405;28;20618;-76
2021/04/14 11:46:37;;;;;;;9.13;7.50;;;14.90;71.70;;;;;;5093278;28;20181;-76
2021/04/14 11:49:05;;;;;;;12.48;7.45;;;15.30;70.40;;;;;;5103116;28;20537;-77
2021/04/14 11:51:45;;;;;;;8.52;7.30;;;16.10;68.20;;;;;;5112502;28;20232;-77
2021/04/14 11:54:28;;;;;;;10.88;7.53;;;16.50;67.20;;;;;;5112500;28;20173;-76
2021/04/14 11:57:13;;;;;;;7.50;6.68;;;17.30;63.90;;;;;;5114063;28;20165;-76
2021/04/14 11:59:46;;;;;;;11.27;8.20;;;16.80;62.50;;;;;;5114092;28;20157;-76
2021/04/14 12:02:12;;;;;;;9.40;7.05;;;17.30;62.20;;;;;;5113463;28;20626;-75
2021/04/14 12:04:39;;;;;;;8.07;7.10;;;17.90;63.70;;;;;;5113677;28;20180;-75
2021/04/14 12:07:05;;;;;;;7.40;6.70;;;19.00;59.70;;;;;;5113734;28;20157;-75
2021/04/14 12:09:30;;;;;;;12.10;7.20;;;20.10;58.90;;;;;;5113898;28;20240;-76
2021/04/14 12:12:02;;;;;;;7.15;5.70;;;20.70;55.60;;;;;;5112292;28;20204;-75
2021/04/14 12:14:28;;;;;;;6.70;6.10;;;22.70;56.20;;;;;;5113862;28;20166;-76
2021/04/14 12:16:53;;;;;;;7.07;6.47;;;22.70;53.90;;;;;;5113785;28;20191;-76
2021/04/14 12:19:19;;;;;;;15.70;7.18;;;21.70;55.80;;;;;;5112633;28;20165;-76
2021/04/14 12:21:45;;;;;;;6.85;6.22;;;20.60;56.20;;;;;;5112234;28;20524;-76
2021/04/14 12:24:11;;;;;;;7.40;6.18;;;19.90;57.20;;;;;;5112627;28;20165;-76
2021/04/14 12:26:36;;;;;;;9.45;6.55;;;19.30;58.60;;;;;;5113778;28;20168;-75
2021/04/14 12:29:02;;;;;;;7.55;6.63;;;16.70;59.50;;;;;;5112512;28;20204;-76
2021/04/14 12:31:31;;;;;;;7.65;6.72;;;15.60;65.50;;;;;;5112256;28;20201;-76
2021/04/14 12:33:57;;;;;;;6.90;6.40;;;14.70;65.20;;;;;;5113342;28;20185;-75
2021/04/14 12:36:23;;;;;;;10.43;6.63;;;14.60;67.90;;;;;;5113316;28;20162;-75
2021/04/14 12:38:48;;;;;;;8.00;6.35;;;14.70;67.50;;;;;;5113228;28;20174;-75
2021/04/14 12:41:14;;;;;;;8.85;6.80;;;13.10;70.30;;;;;;5113603;28;20538;-76
2021/04/14 12:43:39;;;;;;;10.70;5.93;;;12.80;74.00;;;;;;5111559;28;20603;-76
2021/04/14 12:46:05;;;;;;;6.97;6.28;;;13.50;73.30;;;;;;5113609;28;20166;-76
2021/04/14 12:48:38;;;;;;;6.13;5.53;;;14.20;72.20;;;;;;5112309;28;20227;-75
2021/04/14 12:51:25;;;;;;;10.65;6.20;;;14.30;70.60;;;;;;5113482;28;20201;-75
2021/04/14 12:54:12;;;;;;;8.40;6.97;;;14.30;70.10;;;;;;5113233;28;20165;-74
2021/04/14 12:56:42;;;;;;;6.97;6.28;;;14.80;69.20;;;;;;5115348;28;20252;-76
2021/04/14 12:59:19;;;;;;;7.63;6.93;;;14.60;69.10;;;;;;5117195;28;20169;-75
2021/04/14 13:01:47;;;;;;;14.23;6.55;;;14.80;69.00;;;;;;5116918;28;20177;-74